createdAt,value
2023-05-01T00:00:20.926Z,11.23
2023-05-01T00:06:24.620Z,11.68
2023-05-01T00:12:28.088Z,11.50
2023-05-01T00:18:33.239Z,11.32
2023-05-01T00:24:36.795Z,11.57
2023-05-01T00:30:40.892Z,11.20
2023-05-01T00:36:46.445Z,11.45
2023-05-01T00:42:51.359Z,11.95
2023-05-01T00:48:54.798Z,11.50
2023-05-01T00:54:59.931Z,13.55
2023-05-01T01:01:05.397Z,12.07
2023-05-01T01:07:11.804Z,12.52
2023-05-01T01:13:21.064Z,11.60
2023-05-01T01:19:39.423Z,12.38
2023-05-01T01:25:58.075Z,13.70
2023-05-01T01:32:05.740Z,13.48
2023-05-01T01:38:15.132Z,14.43
2023-05-01T01:44:21.283Z,14.05
2023-05-01T01:50:26.707Z,14.05
2023-05-01T01:56:33.183Z,14.32
2023-05-01T02:02:37.991Z,15.90
2023-05-01T02:08:41.771Z,17.23
2023-05-01T02:14:47.440Z,18.08
2023-05-01T02:20:51.447Z,18.70
2023-05-01T02:26:56.539Z,19.63
2023-05-01T02:33:01.441Z,18.50
2023-05-01T02:39:04.981Z,18.65
2023-05-01T02:45:09.959Z,18.38
2023-05-01T02:51:15.008Z,17.58
2023-05-01T02:57:20.349Z,17.75
2023-05-01T03:03:23.917Z,19.25
2023-05-01T03:09:28.721Z,19.80
2023-05-01T03:15:32.648Z,18.17
2023-05-01T03:21:37.086Z,19.67
2023-05-01T03:27:41.883Z,18.05
2023-05-01T03:33:45.452Z,18.50
2023-05-01T03:39:49.072Z,19.42
2023-05-01T03:45:53.909Z,15.88
2023-05-01T03:51:57.986Z,18.45
2023-05-01T03:58:01.387Z,17.70
2023-05-01T04:04:06.346Z,18.02
2023-05-01T04:10:10.687Z,18.45
2023-05-01T04:16:14.348Z,15.82
2023-05-01T04:22:19.626Z,9.20
2023-05-01T04:28:23.108Z,18.15
2023-05-01T04:34:29.415Z,16.45
2023-05-01T04:40:34.548Z,18.33
2023-05-01T04:46:37.965Z,19.70
2023-05-01T04:52:41.508Z,19.00
2023-05-01T04:58:46.319Z,19.95
2023-05-01T05:04:50.195Z,19.27
2023-05-01T05:10:58.280Z,17.02
2023-05-01T05:17:03.316Z,18.27
2023-05-01T05:23:08.272Z,18.13
2023-05-01T05:29:12.217Z,14.68
2023-05-01T05:35:17.157Z,19.45
2023-05-01T05:41:20.637Z,21.50
2023-05-01T05:47:24.092Z,19.98
2023-05-01T05:53:28.862Z,18.48
2023-05-01T05:59:32.567Z,19.88
2023-05-01T06:05:36.036Z,10.75
2023-05-01T06:11:40.806Z,12.95
2023-05-01T06:17:44.338Z,11.60
2023-05-01T06:23:47.812Z,12.55
2023-05-01T06:29:52.871Z,9.05
2023-05-01T06:35:59.708Z,14.95
2023-05-01T06:42:03.442Z,13.77
2023-05-01T06:48:08.539Z,16.55
2023-05-01T06:54:12.361Z,7.03
2023-05-01T07:00:17.856Z,17.08
2023-05-01T07:06:22.934Z,15.30
2023-05-01T07:12:26.851Z,12.60
2023-05-01T07:18:30.432Z,13.60
2023-05-01T07:24:35.418Z,13.10
2023-05-01T07:30:38.832Z,7.40
2023-05-01T07:36:42.707Z,11.38
2023-05-01T07:42:47.596Z,15.38
2023-05-01T07:48:51.008Z,11.77
2023-05-01T07:54:54.508Z,16.63
2023-05-01T08:00:59.286Z,15.60
2023-05-01T08:07:02.940Z,10.38
2023-05-01T08:13:06.341Z,8.75
2023-05-01T08:19:11.234Z,8.60
2023-05-01T08:25:14.754Z,8.88
2023-05-01T08:31:19.480Z,10.05
2023-05-01T08:37:24.357Z,8.70
2023-05-01T08:43:28.639Z,9.13
2023-05-01T08:49:34.697Z,8.25
2023-05-01T08:55:40.637Z,8.00
2023-05-01T09:01:44.547Z,7.28
2023-05-01T09:07:48.745Z,8.77
2023-05-01T09:13:53.843Z,10.45
2023-05-01T09:19:57.547Z,10.10
2023-05-01T09:26:01.425Z,7.40
2023-05-01T09:32:15.182Z,8.70
2023-05-01T09:38:22.792Z,10.05
2023-05-01T09:44:26.924Z,9.73
2023-05-01T09:50:32.561Z,8.48
2023-05-01T09:56:36.095Z,10.95
2023-05-01T10:02:39.913Z,11.23
2023-05-01T10:08:48.674Z,10.95
2023-05-01T10:14:53.620Z,14.15
2023-05-01T10:20:57.108Z,11.15
2023-05-01T10:27:03.412Z,10.75
2023-05-01T10:33:07.696Z,10.85
2023-05-01T10:39:31.225Z,10.57
2023-05-01T10:45:36.451Z,9.82
2023-05-01T10:51:59.463Z,11.60
2023-05-01T10:58:03.857Z,11.00
2023-05-01T11:04:10.634Z,10.68
2023-05-01T11:10:27.401Z,11.32
2023-05-01T11:16:46.367Z,11.88
2023-05-01T11:22:52.281Z,11.48
2023-05-01T11:28:56.512Z,11.13
2023-05-01T11:35:00.292Z,10.20
2023-05-01T11:41:06.156Z,12.13
2023-05-01T11:47:10.010Z,9.80
2023-05-01T11:53:15.950Z,10.65
2023-05-01T11:59:21.091Z,10.00
2023-05-01T12:05:25.171Z,10.90
2023-05-01T12:11:28.809Z,12.05
2023-05-01T12:17:33.895Z,10.52
2023-05-01T12:23:38.563Z,12.20
2023-05-01T12:29:42.261Z,11.60
2023-05-01T12:35:48.808Z,11.25
2023-05-01T12:41:53.168Z,12.75
2023-05-01T12:47:56.646Z,12.23
2023-05-01T12:54:01.500Z,11.35
2023-05-01T13:00:06.567Z,10.60
2023-05-01T13:06:10.195Z,10.63
2023-05-01T13:12:15.142Z,9.73
2023-05-01T13:18:18.565Z,9.48
2023-05-01T13:24:22.356Z,9.90
2023-05-01T13:30:34.774Z,7.55
2023-05-01T13:36:38.404Z,7.47
2023-05-01T13:42:43.102Z,5.90
2023-05-01T13:48:48.304Z,6.95
2023-05-01T13:54:58.056Z,7.47
2023-05-01T14:01:02.079Z,6.70
2023-05-01T14:07:07.114Z,6.63
2023-05-01T14:13:10.595Z,5.53
2023-05-01T14:19:17.410Z,5.53
2023-05-01T14:25:26.675Z,5.78
2023-05-01T14:31:31.997Z,6.93
2023-05-01T14:37:35.419Z,5.10
2023-05-01T14:43:42.912Z,7.85
2023-05-01T14:49:46.309Z,6.40
2023-05-01T14:55:52.656Z,7.60
2023-05-01T15:01:57.519Z,4.78
2023-05-01T15:08:01.653Z,6.63
2023-05-01T15:14:05.967Z,5.40
2023-05-01T15:20:12.194Z,5.40
2023-05-01T15:26:16.098Z,4.13
2023-05-01T15:32:19.635Z,4.32
2023-05-01T15:38:25.317Z,4.30
2023-05-01T15:44:28.825Z,5.93
2023-05-01T15:50:32.234Z,3.70
2023-05-01T15:56:37.707Z,4.25
2023-05-01T16:02:41.308Z,3.80
2023-05-01T16:08:45.005Z,3.67
2023-05-01T16:14:50.183Z,3.47
2023-05-01T16:20:54.781Z,7.18
2023-05-01T16:26:58.387Z,5.40
2023-05-01T16:33:05.261Z,6.65
2023-05-01T16:39:10.813Z,5.95
2023-05-01T16:45:14.444Z,6.70
2023-05-01T16:51:20.087Z,3.67
2023-05-01T16:57:23.838Z,4.78
2023-05-01T17:03:27.651Z,4.00
2023-05-01T17:09:32.460Z,3.88
2023-05-01T17:15:35.876Z,4.50
2023-05-01T17:21:39.297Z,3.47
2023-05-01T17:27:44.111Z,3.00
2023-05-01T17:33:48.324Z,3.17
2023-05-01T17:39:51.833Z,3.67
2023-05-01T17:45:56.676Z,3.10
2023-05-01T17:52:00.139Z,2.90
2023-05-01T17:58:03.588Z,4.25
2023-05-01T18:04:09.515Z,3.38
2023-05-01T18:10:13.485Z,3.17
2023-05-01T18:16:17.444Z,3.25
2023-05-01T18:22:22.528Z,3.15
2023-05-01T18:28:26.110Z,3.08
2023-05-01T18:34:29.491Z,4.18
2023-05-01T18:40:34.353Z,4.93
2023-05-01T18:46:37.803Z,5.40
2023-05-01T18:52:42.252Z,5.40
2023-05-01T18:58:47.169Z,5.65
2023-05-01T19:04:57.239Z,6.35
2023-05-01T19:11:01.190Z,5.82
2023-05-01T19:17:06.579Z,5.88
2023-05-01T19:23:10.131Z,6.05
2023-05-01T19:29:15.161Z,6.05
2023-05-01T19:35:20.100Z,5.72
2023-05-01T19:41:23.529Z,5.13
2023-05-01T19:47:26.998Z,6.00
2023-05-01T19:53:32.255Z,6.53
2023-05-01T19:59:38.873Z,6.10
2023-05-01T20:05:43.088Z,6.30
2023-05-01T20:11:47.840Z,6.75
2023-05-01T20:17:51.455Z,5.43
2023-05-01T20:23:55.350Z,5.75
2023-05-01T20:30:00.683Z,5.88
2023-05-01T20:36:04.289Z,5.95
2023-05-01T20:42:07.811Z,5.72
2023-05-01T20:48:12.783Z,5.78
2023-05-01T20:54:16.360Z,6.10
2023-05-01T21:00:20.085Z,6.88
2023-05-01T21:06:25.033Z,6.07
2023-05-01T21:12:30.177Z,6.72
2023-05-01T21:18:35.152Z,6.63
2023-05-01T21:24:41.189Z,6.22
2023-05-01T21:30:44.957Z,6.43
2023-05-01T21:36:49.339Z,7.20
2023-05-01T21:42:54.740Z,7.30
2023-05-01T21:48:58.194Z,6.78
2023-05-01T21:55:03.334Z,7.55
2023-05-01T22:01:09.498Z,6.90
2023-05-01T22:07:13.085Z,7.13
2023-05-01T22:13:16.504Z,6.88
2023-05-01T22:19:21.364Z,6.72
2023-05-01T22:25:24.759Z,7.50
2023-05-01T22:31:28.202Z,7.82
2023-05-01T22:37:32.951Z,8.68
2023-05-01T22:43:36.470Z,8.75
2023-05-01T22:49:40.031Z,8.52
2023-05-01T22:55:44.910Z,9.48
2023-05-01T23:01:48.388Z,9.88
2023-05-01T23:07:52.002Z,9.20
2023-05-01T23:13:56.794Z,8.77
2023-05-01T23:20:00.628Z,8.68
2023-05-01T23:26:04.256Z,9.75
2023-05-01T23:32:11.284Z,9.85
2023-05-01T23:38:14.940Z,11.10
2023-05-01T23:44:18.379Z,11.15
2023-05-01T23:50:25.406Z,10.43
2023-05-01T23:56:28.915Z,11.73
